createdAt,value
2023-08-17T00:01:33.651Z,24.83
2023-08-17T00:05:03.022Z,24.88
2023-08-17T00:08:32.310Z,24.95
2023-08-17T00:12:02.645Z,25.01
2023-08-17T00:15:32.493Z,25.07
2023-08-17T00:19:01.697Z,25.12
2023-08-17T00:22:22.377Z,25.17
2023-08-17T00:25:51.725Z,25.23
2023-08-17T00:29:19.902Z,25.27
2023-08-17T00:32:49.214Z,25.30
2023-08-17T00:36:18.410Z,25.33
2023-08-17T00:39:47.624Z,25.37
2023-08-17T00:43:16.922Z,25.40
2023-08-17T00:46:46.224Z,25.43
2023-08-17T00:50:15.543Z,25.47
2023-08-17T00:53:44.881Z,25.49
2023-08-17T00:57:14.357Z,25.51
2023-08-17T01:00:43.710Z,25.52
2023-08-17T01:04:14.001Z,25.51
2023-08-17T01:07:43.522Z,25.50
2023-08-17T01:11:25.310Z,25.48
2023-08-17T01:15:18.928Z,25.45
2023-08-17T01:19:04.329Z,25.39
2023-08-17T01:22:33.604Z,25.36
2023-08-17T01:26:03.346Z,25.32
2023-08-17T01:29:33.832Z,25.27
2023-08-17T01:33:13.541Z,25.22
2023-08-17T01:36:48.779Z,25.18
2023-08-17T01:40:12.770Z,25.15
2023-08-17T01:43:43.305Z,25.11
2023-08-17T01:47:15.478Z,25.07
2023-08-17T01:50:44.897Z,25.03
2023-08-17T01:54:15.629Z,24.99
2023-08-17T01:57:34.809Z,24.95
2023-08-17T02:01:04.148Z,24.90
2023-08-17T02:04:34.643Z,24.88
2023-08-17T02:07:56.883Z,24.84
2023-08-17T02:11:26.903Z,24.81
2023-08-17T02:14:56.745Z,24.78
2023-08-17T02:18:26.365Z,24.76
2023-08-17T02:21:55.638Z,24.72
2023-08-17T02:25:25.485Z,24.66
2023-08-17T02:28:54.613Z,24.63
2023-08-17T02:32:24.022Z,24.59
2023-08-17T02:35:54.267Z,24.54
2023-08-17T02:39:23.073Z,24.49
2023-08-17T02:42:42.422Z,24.42
2023-08-17T02:46:11.900Z,24.36
2023-08-17T02:49:41.259Z,24.27
2023-08-17T02:53:10.221Z,24.19
2023-08-17T02:56:39.624Z,24.10
2023-08-17T03:00:08.993Z,24.02
2023-08-17T03:03:38.113Z,23.92
2023-08-17T03:07:07.601Z,23.83
2023-08-17T03:10:36.325Z,23.75
2023-08-17T03:14:05.144Z,23.68
2023-08-17T03:17:34.237Z,23.64
2023-08-17T03:21:03.273Z,23.60
2023-08-17T03:24:31.993Z,23.55
2023-08-17T03:28:02.289Z,23.51
2023-08-17T03:31:31.684Z,23.45
2023-08-17T03:35:00.912Z,23.36
2023-08-17T03:38:22.817Z,23.26
2023-08-17T03:41:52.123Z,23.16
2023-08-17T03:45:21.410Z,23.08
2023-08-17T03:48:50.750Z,22.97
2023-08-17T03:52:20.095Z,22.87
2023-08-17T03:55:49.445Z,22.76
2023-08-17T03:59:18.757Z,22.70
2023-08-17T04:02:47.537Z,22.63
2023-08-17T04:06:05.598Z,22.57
2023-08-17T04:09:35.967Z,22.53
2023-08-17T04:13:05.368Z,22.47
2023-08-17T04:16:35.133Z,22.41
2023-08-17T04:20:05.585Z,22.37
2023-08-17T04:23:34.598Z,22.33
2023-08-17T04:27:03.745Z,22.26
2023-08-17T04:30:33.227Z,22.15
2023-08-17T04:34:02.356Z,22.05
2023-08-17T04:37:31.343Z,21.97
2023-08-17T04:41:00.449Z,21.93
2023-08-17T04:44:29.969Z,21.90
2023-08-17T04:47:59.284Z,21.86
2023-08-17T04:51:21.040Z,21.83
2023-08-17T04:54:50.325Z,21.80
2023-08-17T04:58:20.555Z,21.78
2023-08-17T05:01:49.972Z,21.75
2023-08-17T05:05:19.277Z,21.71
2023-08-17T05:08:48.387Z,21.65
2023-08-17T05:12:17.693Z,21.58
2023-08-17T05:15:46.835Z,21.52
2023-08-17T05:19:15.985Z,21.46
2023-08-17T05:22:45.135Z,21.41
2023-08-17T05:26:16.376Z,21.36
2023-08-17T05:29:35.298Z,21.33
2023-08-17T05:33:04.753Z,21.30
2023-08-17T05:36:37.434Z,21.27
2023-08-17T05:40:07.056Z,21.23
2023-08-17T05:43:30.028Z,21.14
2023-08-17T05:47:00.192Z,21.02
2023-08-17T05:50:29.210Z,20.88
2023-08-17T05:53:58.551Z,20.76
2023-08-17T05:57:28.095Z,20.63
2023-08-17T06:00:39.155Z,20.50
2023-08-17T06:04:08.822Z,20.44
2023-08-17T06:07:38.139Z,20.38
2023-08-17T06:11:08.417Z,20.35
2023-08-17T06:14:37.447Z,20.34
2023-08-17T06:18:07.582Z,20.32
2023-08-17T06:21:36.832Z,20.31
2023-08-17T06:25:06.062Z,20.32
2023-08-17T06:28:35.638Z,20.31
2023-08-17T06:32:04.767Z,20.29
2023-08-17T06:35:34.206Z,20.27
2023-08-17T06:39:03.555Z,20.25
2023-08-17T06:42:33.469Z,20.23
2023-08-17T06:46:03.147Z,20.21
2023-08-17T06:49:32.372Z,20.21
2023-08-17T06:53:01.534Z,20.22
2023-08-17T06:56:30.885Z,20.23
2023-08-17T07:00:00.235Z,20.25
2023-08-17T07:03:29.571Z,20.24
2023-08-17T07:06:59.124Z,20.21
2023-08-17T07:10:29.446Z,20.19
2023-08-17T07:13:38.605Z,20.17
2023-08-17T07:17:07.928Z,20.17
2023-08-17T07:20:37.130Z,20.17
2023-08-17T07:24:06.305Z,20.16
2023-08-17T07:27:35.574Z,20.13
2023-08-17T07:31:04.569Z,20.04
2023-08-17T07:34:33.593Z,19.89
2023-08-17T07:38:08.922Z,19.73
2023-08-17T07:41:38.818Z,19.57
2023-08-17T07:45:07.904Z,19.43
2023-08-17T07:48:40.031Z,19.31
2023-08-17T07:52:09.018Z,19.19
2023-08-17T07:55:38.310Z,19.08
2023-08-17T07:59:07.477Z,18.98
2023-08-17T08:02:37.266Z,18.91
2023-08-17T08:06:05.830Z,18.84
2023-08-17T08:09:29.941Z,18.77
2023-08-17T08:12:59.438Z,18.70
2023-08-17T08:16:28.520Z,18.64
2023-08-17T08:19:57.953Z,18.59
2023-08-17T08:23:27.361Z,18.56
2023-08-17T08:26:56.616Z,18.53
2023-08-17T08:30:25.983Z,18.48
2023-08-17T08:33:55.610Z,18.43
2023-08-17T08:37:25.107Z,18.40
2023-08-17T08:40:57.605Z,18.39
2023-08-17T08:44:27.073Z,18.37
2023-08-17T08:47:56.362Z,18.32
2023-08-17T08:51:26.157Z,18.26
2023-08-17T08:54:55.584Z,18.21
2023-08-17T08:58:24.865Z,18.19
2023-08-17T09:01:54.397Z,18.19
2023-08-17T09:05:23.499Z,18.18
2023-08-17T09:08:45.941Z,18.15
2023-08-17T09:12:08.339Z,18.13
2023-08-17T09:15:30.750Z,18.11
2023-08-17T09:19:00.263Z,18.11
2023-08-17T09:22:29.797Z,18.09
2023-08-17T09:25:59.821Z,18.10
2023-08-17T09:29:29.255Z,18.11
2023-08-17T09:32:58.782Z,18.09
2023-08-17T09:36:27.916Z,18.11
2023-08-17T09:39:57.275Z,18.12
2023-08-17T09:43:26.373Z,18.12
2023-08-17T09:46:55.781Z,18.10
2023-08-17T09:50:25.109Z,18.11
2023-08-17T09:54:00.165Z,18.11
2023-08-17T09:57:29.672Z,18.07
2023-08-17T10:01:00.017Z,18.04
2023-08-17T10:04:29.313Z,18.02
2023-08-17T10:07:58.486Z,18.00
2023-08-17T10:11:30.627Z,17.98
2023-08-17T10:15:03.095Z,17.95
2023-08-17T10:18:41.562Z,17.94
2023-08-17T10:22:22.739Z,17.93
2023-08-17T10:25:51.793Z,17.93
2023-08-17T10:29:30.215Z,17.94
2023-08-17T10:32:59.647Z,17.94
2023-08-17T10:36:27.992Z,17.94
2023-08-17T10:40:05.004Z,17.96
2023-08-17T10:43:34.186Z,17.97
2023-08-17T10:47:03.284Z,17.98
2023-08-17T10:50:35.390Z,17.98
2023-08-17T10:54:07.742Z,17.98
2023-08-17T10:57:36.856Z,17.99
2023-08-17T11:01:09.578Z,18.01
2023-08-17T11:04:54.136Z,18.02
2023-08-17T11:08:26.017Z,18.02
2023-08-17T11:11:58.472Z,18.00
2023-08-17T11:15:27.839Z,17.97
2023-08-17T11:18:56.981Z,17.93
2023-08-17T11:22:26.459Z,17.88
2023-08-17T11:25:55.532Z,17.83
2023-08-17T11:29:24.915Z,17.77
2023-08-17T11:32:54.555Z,17.69
2023-08-17T11:36:15.964Z,17.65
2023-08-17T11:39:46.381Z,17.60
2023-08-17T11:43:10.066Z,17.55
2023-08-17T11:46:39.181Z,17.51
2023-08-17T11:50:19.150Z,17.48
2023-08-17T11:53:50.386Z,17.45
2023-08-17T11:57:20.428Z,17.41
2023-08-17T12:00:49.979Z,17.39
2023-08-17T12:04:19.411Z,17.36
2023-08-17T12:07:48.624Z,17.35
2023-08-17T12:11:19.370Z,17.35
2023-08-17T12:14:54.772Z,17.34
2023-08-17T12:18:24.253Z,17.33
2023-08-17T12:21:56.046Z,17.32
2023-08-17T12:25:24.953Z,17.31
2023-08-17T12:28:57.310Z,17.27
2023-08-17T12:32:19.879Z,17.25
2023-08-17T12:35:49.137Z,17.26
2023-08-17T12:39:18.563Z,17.28
2023-08-17T12:42:31.570Z,17.31
2023-08-17T12:46:01.033Z,17.32
2023-08-17T12:49:30.349Z,17.33
2023-08-17T12:52:59.712Z,17.31
2023-08-17T12:56:28.973Z,17.33
2023-08-17T12:59:45.391Z,17.35
2023-08-17T13:03:15.823Z,17.35
2023-08-17T13:06:49.821Z,17.34
2023-08-17T13:10:19.467Z,17.35
2023-08-17T13:13:48.558Z,17.38
2023-08-17T13:17:17.055Z,17.38
2023-08-17T13:20:46.361Z,17.34
2023-08-17T13:24:15.667Z,17.31
2023-08-17T13:27:45.294Z,17.29
2023-08-17T13:31:23.158Z,17.28
2023-08-17T13:34:53.621Z,17.27
2023-08-17T13:38:22.487Z,17.28
2023-08-17T13:41:51.585Z,17.30
2023-08-17T13:45:20.995Z,17.30
2023-08-17T13:48:50.225Z,17.31
2023-08-17T13:52:19.329Z,17.32
2023-08-17T13:55:49.982Z,17.32
2023-08-17T13:59:12.329Z,17.32
2023-08-17T14:02:41.851Z,17.32
2023-08-17T14:06:11.263Z,17.29
2023-08-17T14:09:48.725Z,17.26
2023-08-17T14:13:23.832Z,17.23
2023-08-17T14:16:53.052Z,17.22
2023-08-17T14:20:22.461Z,17.20
2023-08-17T14:23:51.989Z,17.19
2023-08-17T14:27:21.267Z,17.19
2023-08-17T14:30:53.147Z,17.19
2023-08-17T14:34:22.740Z,17.18
2023-08-17T14:37:51.969Z,17.20
2023-08-17T14:41:12.888Z,17.23
2023-08-17T14:44:34.631Z,17.25
2023-08-17T14:48:04.030Z,17.27
2023-08-17T14:51:30.884Z,17.29
2023-08-17T14:55:00.866Z,17.30
2023-08-17T14:58:29.933Z,17.25
2023-08-17T15:01:59.451Z,17.22
2023-08-17T15:05:18.188Z,17.17
2023-08-17T15:08:40.462Z,17.14
2023-08-17T15:12:09.855Z,17.13
2023-08-17T15:15:39.190Z,17.14
2023-08-17T15:19:11.161Z,17.16
2023-08-17T15:22:40.350Z,17.20
2023-08-17T15:26:09.760Z,17.25
2023-08-17T15:29:39.163Z,17.31
2023-08-17T15:33:08.893Z,17.34
2023-08-17T15:36:39.341Z,17.37
2023-08-17T15:40:08.588Z,17.39
2023-08-17T15:43:37.584Z,17.41
2023-08-17T15:47:06.926Z,17.41
2023-08-17T15:50:36.163Z,17.41
2023-08-17T15:54:05.384Z,17.41
2023-08-17T15:57:34.527Z,17.42
2023-08-17T16:01:03.833Z,17.42
2023-08-17T16:04:33.003Z,17.41
2023-08-17T16:08:02.150Z,17.41
2023-08-17T16:15:06.142Z,17.41
2023-08-17T16:18:35.447Z,17.40
2023-08-17T16:22:04.558Z,17.39
2023-08-17T16:25:16.876Z,17.38
2023-08-17T16:28:44.545Z,17.39
2023-08-17T16:32:15.283Z,17.42
2023-08-17T16:35:45.236Z,17.44
2023-08-17T16:39:14.720Z,17.47
2023-08-17T16:42:45.059Z,17.49
2023-08-17T16:46:08.156Z,17.52
2023-08-17T16:49:37.284Z,17.54
2023-08-17T16:53:06.833Z,17.58
2023-08-17T16:56:36.645Z,17.61
2023-08-17T17:00:05.896Z,17.64
2023-08-17T17:03:35.386Z,17.66
2023-08-17T17:07:04.433Z,17.70
2023-08-17T17:10:34.022Z,17.72
2023-08-17T17:14:03.359Z,17.77
2023-08-17T17:17:32.825Z,17.82
2023-08-17T17:21:02.256Z,17.87
2023-08-17T17:24:31.373Z,17.90
2023-08-17T17:28:00.977Z,17.93
2023-08-17T17:31:30.328Z,17.95
2023-08-17T17:34:59.464Z,17.96
2023-08-17T17:38:28.907Z,17.97
2023-08-17T17:42:01.704Z,17.98
2023-08-17T17:45:32.189Z,18.01
2023-08-17T17:49:01.181Z,18.03
2023-08-17T17:52:30.778Z,18.06
2023-08-17T17:56:00.114Z,18.09
2023-08-17T17:59:29.492Z,18.14
2023-08-17T18:02:58.500Z,18.17
2023-08-17T18:06:29.145Z,18.22
2023-08-17T18:09:51.172Z,18.27
2023-08-17T18:13:21.324Z,18.32
2023-08-17T18:16:50.670Z,18.37
2023-08-17T18:20:21.147Z,18.43
2023-08-17T18:23:50.462Z,18.49
2023-08-17T18:27:19.743Z,18.55
2023-08-17T18:30:49.935Z,18.60
2023-08-17T18:34:19.120Z,18.67
2023-08-17T18:37:48.474Z,18.73
2023-08-17T18:41:17.527Z,18.81
2023-08-17T18:44:46.821Z,18.89
2023-08-17T18:48:16.242Z,18.97
2023-08-17T18:51:45.427Z,19.06
2023-08-17T18:55:17.398Z,19.16
2023-08-17T18:58:49.628Z,19.26
2023-08-17T19:02:12.248Z,19.35
2023-08-17T19:05:42.405Z,19.45
2023-08-17T19:09:11.210Z,19.53
2023-08-17T19:12:40.401Z,19.63
2023-08-17T19:16:09.654Z,19.72
2023-08-17T19:19:39.099Z,19.81
2023-08-17T19:23:09.465Z,19.89
2023-08-17T19:26:39.578Z,19.95
2023-08-17T19:30:02.136Z,20.03
2023-08-17T19:33:31.683Z,20.10
2023-08-17T19:37:00.865Z,20.19
2023-08-17T19:40:29.972Z,20.26
2023-08-17T19:43:59.283Z,20.34
2023-08-17T19:47:18.635Z,20.43
2023-08-17T19:50:47.854Z,20.51
2023-08-17T19:54:17.177Z,20.60
2023-08-17T19:57:39.829Z,20.68
2023-08-17T20:01:10.377Z,20.78
2023-08-17T20:04:39.788Z,20.86
2023-08-17T20:08:08.958Z,20.93
2023-08-17T20:11:38.319Z,21.01
2023-08-17T20:15:07.397Z,21.08
2023-08-17T20:18:36.575Z,21.17
2023-08-17T20:22:05.842Z,21.27
2023-08-17T20:25:35.741Z,21.35
2023-08-17T20:29:06.300Z,21.45
2023-08-17T20:32:35.655Z,21.56
2023-08-17T20:36:04.783Z,21.65
2023-08-17T20:39:34.033Z,21.74
2023-08-17T20:43:10.594Z,21.82
2023-08-17T20:46:42.978Z,21.92
2023-08-17T20:50:12.124Z,21.99
2023-08-17T20:53:40.085Z,22.08
2023-08-17T20:57:09.773Z,22.16
2023-08-17T21:00:39.043Z,22.23
2023-08-17T21:04:08.666Z,22.32
2023-08-17T21:07:37.820Z,22.42
2023-08-17T21:11:07.740Z,22.49
2023-08-17T21:14:36.844Z,22.57
2023-08-17T21:18:06.083Z,22.63
2023-08-17T21:21:35.267Z,22.69
2023-08-17T21:25:04.458Z,22.75
2023-08-17T21:28:33.892Z,22.81
2023-08-17T21:32:06.259Z,22.86
2023-08-17T21:35:28.619Z,22.93
2023-08-17T21:38:57.874Z,22.98
2023-08-17T21:42:20.992Z,23.05
2023-08-17T21:45:50.504Z,23.14
2023-08-17T21:49:21.154Z,23.20
2023-08-17T21:52:44.005Z,23.26
2023-08-17T21:56:13.029Z,23.31
2023-08-17T21:59:42.388Z,23.32
2023-08-17T22:03:11.602Z,23.31
2023-08-17T22:06:33.645Z,23.31
2023-08-17T22:10:04.482Z,23.30
2023-08-17T22:13:33.719Z,23.30
2023-08-17T22:17:02.936Z,23.31
2023-08-17T22:20:32.112Z,23.34
2023-08-17T22:24:01.558Z,23.40
2023-08-17T22:27:31.039Z,23.45
2023-08-17T22:31:00.624Z,23.49
2023-08-17T22:34:29.879Z,23.52
2023-08-17T22:37:59.124Z,23.56
2023-08-17T22:41:12.742Z,23.60
2023-08-17T22:44:41.766Z,23.61
2023-08-17T22:48:10.282Z,23.57
2023-08-17T22:51:39.618Z,23.55
2023-08-17T22:55:09.182Z,23.55
2023-08-17T22:58:38.248Z,23.54
2023-08-17T23:02:07.596Z,23.54
2023-08-17T23:05:36.794Z,23.54
2023-08-17T23:09:06.013Z,23.53
2023-08-17T23:12:35.285Z,23.52
2023-08-17T23:16:04.479Z,23.52
2023-08-17T23:19:33.935Z,23.48
2023-08-17T23:23:02.972Z,23.41
2023-08-17T23:26:32.092Z,23.37
2023-08-17T23:30:01.275Z,23.35
2023-08-17T23:33:30.820Z,23.34
2023-08-17T23:37:01.204Z,23.35
2023-08-17T23:40:30.405Z,23.32
2023-08-17T23:43:59.611Z,23.28
2023-08-17T23:47:29.034Z,23.25
2023-08-17T23:50:51.376Z,23.21
2023-08-17T23:54:20.434Z,23.20
2023-08-17T23:57:49.691Z,23.17
